sensor_id;sensor_type;location;lat;lon;timestamp;P1;durP1;ratioP1;P2;durP2;ratioP2
82574;SDS011;72260;65.870;13.210;2023-09-19T00:00:03;2.00;;;1.40;;
82574;SDS011;72260;65.870;13.210;2023-09-19T00:02:31;1.40;;;1.10;;
82574;SDS011;72260;65.870;13.210;2023-09-19T00:04:58;1.92;;;1.30;;
82574;SDS011;72260;65.870;13.210;2023-09-19T00:07:23;2.13;;;1.50;;
82574;SDS011;72260;65.870;13.210;2023-09-19T00:09:49;2.38;;;1.30;;
82574;SDS011;72260;65.870;13.210;2023-09-19T00:12:14;3.33;;;1.30;;
82574;SDS011;72260;65.870;13.210;2023-09-19T00:14:40;3.50;;;1.60;;
82574;SDS011;72260;65.870;13.210;2023-09-19T00:17:05;1.83;;;1.15;;
82574;SDS011;72260;65.870;13.210;2023-09-19T00:19:36;3.10;;;1.20;;
82574;SDS011;72260;65.870;13.210;2023-09-19T00:22:02;1.90;;;1.40;;
82574;SDS011;72260;65.870;13.210;2023-09-19T00:24:28;2.00;;;1.15;;
82574;SDS011;72260;65.870;13.210;2023-09-19T00:26:53;2.05;;;1.30;;
82574;SDS011;72260;65.870;13.210;2023-09-19T00:29:20;3.75;;;1.35;;
82574;SDS011;72260;65.870;13.210;2023-09-19T00:31:46;2.10;;;1.30;;
82574;SDS011;72260;65.870;13.210;2023-09-19T00:34:12;1.58;;;1.20;;
82574;SDS011;72260;65.870;13.210;2023-09-19T00:36:37;1.80;;;1.20;;
82574;SDS011;72260;65.870;13.210;2023-09-19T00:39:08;2.10;;;1.50;;
82574;SDS011;72260;65.870;13.210;2023-09-19T00:41:34;2.20;;;1.30;;
82574;SDS011;72260;65.870;13.210;2023-09-19T00:44:01;2.40;;;1.17;;
82574;SDS011;72260;65.870;13.210;2023-09-19T00:46:28;2.33;;;1.40;;
82574;SDS011;72260;65.870;13.210;2023-09-19T00:48:54;2.75;;;1.40;;
82574;SDS011;72260;65.870;13.210;2023-09-19T00:51:19;1.92;;;1.30;;
82574;SDS011;72260;65.870;13.210;2023-09-19T00:53:47;3.42;;;1.40;;
82574;SDS011;72260;65.870;13.210;2023-09-19T00:56:13;1.90;;;1.60;;
82574;SDS011;72260;65.870;13.210;2023-09-19T00:58:40;2.63;;;1.33;;
82574;SDS011;72260;65.870;13.210;2023-09-19T01:01:05;1.85;;;1.33;;
82574;SDS011;72260;65.870;13.210;2023-09-19T01:03:32;3.38;;;1.42;;
82574;SDS011;72260;65.870;13.210;2023-09-19T01:05:59;2.95;;;1.35;;
82574;SDS011;72260;65.870;13.210;2023-09-19T01:08:25;1.27;;;0.90;;
82574;SDS011;72260;65.870;13.210;2023-09-19T01:11:06;2.50;;;1.40;;
82574;SDS011;72260;65.870;13.210;2023-09-19T01:16:28;4.65;;;1.50;;
82574;SDS011;72260;65.870;13.210;2023-09-19T01:21:43;1.40;;;1.30;;
82574;SDS011;72260;65.870;13.210;2023-09-19T01:30:13;2.10;;;1.30;;
82574;SDS011;72260;65.870;13.210;2023-09-19T01:32:42;2.15;;;1.40;;
82574;SDS011;72260;65.870;13.210;2023-09-19T01:35:09;2.30;;;1.60;;
82574;SDS011;72260;65.870;13.210;2023-09-19T01:37:37;1.77;;;1.58;;
82574;SDS011;72260;65.870;13.210;2023-09-19T01:40:07;2.08;;;1.30;;
82574;SDS011;72260;65.870;13.210;2023-09-19T01:48:38;2.17;;;1.13;;
82574;SDS011;72260;65.870;13.210;2023-09-19T01:51:12;2.33;;;1.48;;
82574;SDS011;72260;65.870;13.210;2023-09-19T01:53:51;4.53;;;1.40;;
82574;SDS011;72260;65.870;13.210;2023-09-19T01:56:37;3.67;;;1.40;;
82574;SDS011;72260;65.870;13.210;2023-09-19T01:59:11;2.03;;;1.40;;
82574;SDS011;72260;65.870;13.210;2023-09-19T02:01:41;3.25;;;1.45;;
82574;SDS011;72260;65.870;13.210;2023-09-19T02:04:09;2.67;;;1.40;;
82574;SDS011;72260;65.870;13.210;2023-09-19T02:06:35;2.25;;;1.40;;
82574;SDS011;72260;65.870;13.210;2023-09-19T02:09:05;2.35;;;1.50;;
82574;SDS011;72260;65.870;13.210;2023-09-19T02:11:31;1.73;;;1.25;;
82574;SDS011;72260;65.870;13.210;2023-09-19T02:13:56;2.20;;;1.40;;
82574;SDS011;72260;65.870;13.210;2023-09-19T02:16:22;2.42;;;1.30;;
82574;SDS011;72260;65.870;13.210;2023-09-19T02:18:48;2.80;;;1.50;;
82574;SDS011;72260;65.870;13.210;2023-09-19T02:21:15;1.70;;;1.15;;
82574;SDS011;72260;65.870;13.210;2023-09-19T02:23:41;2.15;;;1.30;;
82574;SDS011;72260;65.870;13.210;2023-09-19T02:26:07;1.60;;;1.13;;
82574;SDS011;72260;65.870;13.210;2023-09-19T02:28:32;1.73;;;1.20;;
82574;SDS011;72260;65.870;13.210;2023-09-19T02:30:59;1.77;;;1.27;;
82574;SDS011;72260;65.870;13.210;2023-09-19T02:33:24;1.70;;;1.17;;
82574;SDS011;72260;65.870;13.210;2023-09-19T02:35:50;1.60;;;1.17;;
82574;SDS011;72260;65.870;13.210;2023-09-19T02:38:20;3.30;;;1.33;;
82574;SDS011;72260;65.870;13.210;2023-09-19T02:40:49;1.83;;;1.02;;
82574;SDS011;72260;65.870;13.210;2023-09-19T02:43:15;2.55;;;1.50;;
82574;SDS011;72260;65.870;13.210;2023-09-19T02:45:40;1.42;;;1.30;;
82574;SDS011;72260;65.870;13.210;2023-09-19T02:48:06;1.67;;;1.20;;
82574;SDS011;72260;65.870;13.210;2023-09-19T02:50:33;2.67;;;1.40;;
82574;SDS011;72260;65.870;13.210;2023-09-19T02:52:59;3.30;;;1.33;;
82574;SDS011;72260;65.870;13.210;2023-09-19T02:55:24;2.35;;;1.17;;
82574;SDS011;72260;65.870;13.210;2023-09-19T02:57:53;1.80;;;1.20;;
82574;SDS011;72260;65.870;13.210;2023-09-19T03:00:22;2.88;;;1.30;;
82574;SDS011;72260;65.870;13.210;2023-09-19T03:02:53;1.98;;;1.60;;
82574;SDS011;72260;65.870;13.210;2023-09-19T03:05:20;1.48;;;1.10;;
82574;SDS011;72260;65.870;13.210;2023-09-19T03:07:47;1.52;;;1.15;;
82574;SDS011;72260;65.870;13.210;2023-09-19T03:10:16;1.58;;;1.40;;
82574;SDS011;72260;65.870;13.210;2023-09-19T03:12:42;2.00;;;1.38;;
82574;SDS011;72260;65.870;13.210;2023-09-19T03:15:09;2.80;;;1.30;;
82574;SDS011;72260;65.870;13.210;2023-09-19T03:17:35;1.70;;;1.20;;
82574;SDS011;72260;65.870;13.210;2023-09-19T03:20:01;1.77;;;1.17;;
82574;SDS011;72260;65.870;13.210;2023-09-19T03:22:27;1.60;;;1.10;;
82574;SDS011;72260;65.870;13.210;2023-09-19T03:24:53;1.80;;;1.20;;
82574;SDS011;72260;65.870;13.210;2023-09-19T03:27:22;3.03;;;1.23;;
82574;SDS011;72260;65.870;13.210;2023-09-19T03:29:48;2.08;;;1.20;;
82574;SDS011;72260;65.870;13.210;2023-09-19T03:32:13;3.53;;;1.42;;
82574;SDS011;72260;65.870;13.210;2023-09-19T03:34:40;2.25;;;1.35;;
82574;SDS011;72260;65.870;13.210;2023-09-19T03:37:07;1.65;;;1.20;;
82574;SDS011;72260;65.870;13.210;2023-09-19T03:39:36;3.00;;;1.52;;
82574;SDS011;72260;65.870;13.210;2023-09-19T03:42:02;1.52;;;1.30;;
82574;SDS011;72260;65.870;13.210;2023-09-19T03:44:32;2.10;;;1.30;;
82574;SDS011;72260;65.870;13.210;2023-09-19T03:46:58;1.70;;;1.20;;
82574;SDS011;72260;65.870;13.210;2023-09-19T03:49:23;1.90;;;1.25;;
82574;SDS011;72260;65.870;13.210;2023-09-19T03:51:49;2.13;;;1.10;;
82574;SDS011;72260;65.870;13.210;2023-09-19T03:54:14;1.83;;;1.13;;
82574;SDS011;72260;65.870;13.210;2023-09-19T03:56:46;1.50;;;1.15;;
82574;SDS011;72260;65.870;13.210;2023-09-19T03:59:12;1.55;;;1.13;;
82574;SDS011;72260;65.870;13.210;2023-09-19T04:01:38;2.03;;;1.35;;
82574;SDS011;72260;65.870;13.210;2023-09-19T04:04:06;1.60;;;1.10;;
82574;SDS011;72260;65.870;13.210;2023-09-19T04:06:34;3.30;;;1.40;;
82574;SDS011;72260;65.870;13.210;2023-09-19T04:09:01;2.53;;;1.58;;
82574;SDS011;72260;65.870;13.210;2023-09-19T04:11:29;2.22;;;1.30;;
82574;SDS011;72260;65.870;13.210;2023-09-19T04:13:56;1.85;;;1.30;;
82574;SDS011;72260;65.870;13.210;2023-09-19T04:16:21;3.42;;;1.25;;
82574;SDS011;72260;65.870;13.210;2023-09-19T04:18:47;1.75;;;1.20;;
82574;SDS011;72260;65.870;13.210;2023-09-19T04:21:12;1.95;;;1.20;;
82574;SDS011;72260;65.870;13.210;2023-09-19T04:23:38;2.88;;;1.33;;
82574;SDS011;72260;65.870;13.210;2023-09-19T04:26:04;3.83;;;1.83;;
82574;SDS011;72260;65.870;13.210;2023-09-19T04:28:30;3.03;;;1.40;;
82574;SDS011;72260;65.870;13.210;2023-09-19T04:30:57;2.17;;;1.30;;
82574;SDS011;72260;65.870;13.210;2023-09-19T04:33:23;1.88;;;1.30;;
82574;SDS011;72260;65.870;13.210;2023-09-19T04:35:50;1.50;;;1.00;;
82574;SDS011;72260;65.870;13.210;2023-09-19T04:38:17;3.05;;;1.50;;
82574;SDS011;72260;65.870;13.210;2023-09-19T04:40:44;1.58;;;1.10;;
82574;SDS011;72260;65.870;13.210;2023-09-19T04:43:09;1.27;;;1.00;;
82574;SDS011;72260;65.870;13.210;2023-09-19T04:45:34;1.38;;;1.05;;
82574;SDS011;72260;65.870;13.210;2023-09-19T04:48:00;2.10;;;1.27;;
82574;SDS011;72260;65.870;13.210;2023-09-19T04:50:26;1.45;;;1.00;;
82574;SDS011;72260;65.870;13.210;2023-09-19T04:52:53;2.33;;;1.60;;
82574;SDS011;72260;65.870;13.210;2023-09-19T04:55:19;2.53;;;1.30;;
82574;SDS011;72260;65.870;13.210;2023-09-19T04:57:48;1.33;;;0.93;;
82574;SDS011;72260;65.870;13.210;2023-09-19T05:00:18;3.95;;;1.20;;
82574;SDS011;72260;65.870;13.210;2023-09-19T05:02:49;1.35;;;1.20;;
82574;SDS011;72260;65.870;13.210;2023-09-19T05:05:16;1.90;;;1.30;;
82574;SDS011;72260;65.870;13.210;2023-09-19T05:07:44;1.42;;;1.02;;
82574;SDS011;72260;65.870;13.210;2023-09-19T05:10:10;1.63;;;1.23;;
82574;SDS011;72260;65.870;13.210;2023-09-19T05:12:39;1.83;;;1.30;;
82574;SDS011;72260;65.870;13.210;2023-09-19T05:15:06;1.90;;;1.30;;
82574;SDS011;72260;65.870;13.210;2023-09-19T05:17:32;2.20;;;1.20;;
82574;SDS011;72260;65.870;13.210;2023-09-19T05:19:58;1.58;;;1.20;;
82574;SDS011;72260;65.870;13.210;2023-09-19T05:22:29;1.52;;;1.05;;
82574;SDS011;72260;65.870;13.210;2023-09-19T05:24:55;2.28;;;1.30;;
82574;SDS011;72260;65.870;13.210;2023-09-19T05:27:20;1.77;;;1.27;;
82574;SDS011;72260;65.870;13.210;2023-09-19T05:29:46;2.60;;;1.20;;
82574;SDS011;72260;65.870;13.210;2023-09-19T05:32:12;1.27;;;0.90;;
82574;SDS011;72260;65.870;13.210;2023-09-19T05:34:38;2.17;;;1.10;;
82574;SDS011;72260;65.870;13.210;2023-09-19T05:37:04;1.40;;;1.02;;
82574;SDS011;72260;65.870;13.210;2023-09-19T05:39:32;1.50;;;0.90;;
82574;SDS011;72260;65.870;13.210;2023-09-19T05:41:58;1.88;;;0.90;;
82574;SDS011;72260;65.870;13.210;2023-09-19T05:44:25;1.67;;;1.20;;
82574;SDS011;72260;65.870;13.210;2023-09-19T05:46:50;2.83;;;1.15;;
82574;SDS011;72260;65.870;13.210;2023-09-19T05:49:18;0.93;;;0.85;;
82574;SDS011;72260;65.870;13.210;2023-09-19T05:51:46;1.05;;;0.95;;
82574;SDS011;72260;65.870;13.210;2023-09-19T05:54:12;1.10;;;0.95;;
82574;SDS011;72260;65.870;13.210;2023-09-19T05:56:37;1.38;;;1.02;;
82574;SDS011;72260;65.870;13.210;2023-09-19T05:59:03;1.60;;;1.10;;
82574;SDS011;72260;65.870;13.210;2023-09-19T06:01:30;1.00;;;0.90;;
82574;SDS011;72260;65.870;13.210;2023-09-19T06:03:57;0.55;;;0.55;;
82574;SDS011;72260;65.870;13.210;2023-09-19T06:06:25;1.17;;;0.90;;
82574;SDS011;72260;65.870;13.210;2023-09-19T06:08:50;1.48;;;1.00;;
82574;SDS011;72260;65.870;13.210;2023-09-19T06:11:16;1.38;;;1.23;;
82574;SDS011;72260;65.870;13.210;2023-09-19T06:13:41;1.27;;;1.02;;
82574;SDS011;72260;65.870;13.210;2023-09-19T06:16:07;1.17;;;1.00;;
82574;SDS011;72260;65.870;13.210;2023-09-19T06:18:34;1.17;;;0.85;;
82574;SDS011;72260;65.870;13.210;2023-09-19T06:21:00;1.40;;;1.13;;
82574;SDS011;72260;65.870;13.210;2023-09-19T06:23:26;1.60;;;1.00;;
82574;SDS011;72260;65.870;13.210;2023-09-19T06:25:54;1.17;;;0.85;;
82574;SDS011;72260;65.870;13.210;2023-09-19T06:28:19;1.92;;;1.10;;
82574;SDS011;72260;65.870;13.210;2023-09-19T06:30:49;3.13;;;1.00;;
82574;SDS011;72260;65.870;13.210;2023-09-19T06:33:15;0.80;;;0.80;;
82574;SDS011;72260;65.870;13.210;2023-09-19T06:35:40;1.52;;;0.88;;
82574;SDS011;72260;65.870;13.210;2023-09-19T06:38:07;1.15;;;0.80;;
82574;SDS011;72260;65.870;13.210;2023-09-19T06:40:33;1.90;;;1.00;;
82574;SDS011;72260;65.870;13.210;2023-09-19T06:42:59;1.23;;;0.80;;
82574;SDS011;72260;65.870;13.210;2023-09-19T06:45:27;1.45;;;1.00;;
82574;SDS011;72260;65.870;13.210;2023-09-19T06:47:53;1.27;;;1.10;;
82574;SDS011;72260;65.870;13.210;2023-09-19T06:50:23;1.90;;;1.08;;
82574;SDS011;72260;65.870;13.210;2023-09-19T06:52:50;1.65;;;0.88;;
82574;SDS011;72260;65.870;13.210;2023-09-19T06:55:20;2.15;;;1.15;;
82574;SDS011;72260;65.870;13.210;2023-09-19T06:57:50;1.98;;;0.85;;
82574;SDS011;72260;65.870;13.210;2023-09-19T07:00:16;3.15;;;0.98;;
82574;SDS011;72260;65.870;13.210;2023-09-19T07:02:43;3.78;;;1.05;;
82574;SDS011;72260;65.870;13.210;2023-09-19T07:05:09;1.55;;;1.10;;
82574;SDS011;72260;65.870;13.210;2023-09-19T07:07:35;2.10;;;1.08;;
82574;SDS011;72260;65.870;13.210;2023-09-19T07:10:01;2.38;;;1.30;;
82574;SDS011;72260;65.870;13.210;2023-09-19T07:12:28;0.93;;;0.82;;
82574;SDS011;72260;65.870;13.210;2023-09-19T07:14:53;1.23;;;1.00;;
82574;SDS011;72260;65.870;13.210;2023-09-19T07:17:19;1.38;;;0.95;;
82574;SDS011;72260;65.870;13.210;2023-09-19T07:19:46;1.63;;;0.73;;
82574;SDS011;72260;65.870;13.210;2023-09-19T07:22:13;1.35;;;0.82;;
82574;SDS011;72260;65.870;13.210;2023-09-19T07:24:38;1.17;;;0.77;;
82574;SDS011;72260;65.870;13.210;2023-09-19T07:27:04;1.27;;;1.00;;
82574;SDS011;72260;65.870;13.210;2023-09-19T07:29:30;1.27;;;0.88;;
82574;SDS011;72260;65.870;13.210;2023-09-19T07:31:56;0.75;;;0.70;;
82574;SDS011;72260;65.870;13.210;2023-09-19T07:34:21;0.95;;;0.88;;
82574;SDS011;72260;65.870;13.210;2023-09-19T07:36:48;1.10;;;0.70;;
82574;SDS011;72260;65.870;13.210;2023-09-19T07:39:13;2.25;;;0.90;;
82574;SDS011;72260;65.870;13.210;2023-09-19T07:41:39;1.63;;;0.82;;
82574;SDS011;72260;65.870;13.210;2023-09-19T07:44:04;3.40;;;0.90;;
82574;SDS011;72260;65.870;13.210;2023-09-19T07:46:30;2.00;;;1.30;;
82574;SDS011;72260;65.870;13.210;2023-09-19T07:48:57;1.42;;;0.93;;
82574;SDS011;72260;65.870;13.210;2023-09-19T07:51:23;1.27;;;0.98;;
82574;SDS011;72260;65.870;13.210;2023-09-19T07:53:48;1.00;;;0.73;;
82574;SDS011;72260;65.870;13.210;2023-09-19T07:56:14;1.58;;;0.80;;
82574;SDS011;72260;65.870;13.210;2023-09-19T07:58:40;0.93;;;0.80;;
82574;SDS011;72260;65.870;13.210;2023-09-19T08:01:10;1.08;;;0.95;;
82574;SDS011;72260;65.870;13.210;2023-09-19T08:03:37;0.80;;;0.70;;
82574;SDS011;72260;65.870;13.210;2023-09-19T08:06:05;0.52;;;0.52;;
82574;SDS011;72260;65.870;13.210;2023-09-19T08:08:32;1.55;;;0.77;;
82574;SDS011;72260;65.870;13.210;2023-09-19T08:11:04;0.73;;;0.73;;
82574;SDS011;72260;65.870;13.210;2023-09-19T08:13:46;0.95;;;0.80;;
82574;SDS011;72260;65.870;13.210;2023-09-19T08:16:14;0.82;;;0.82;;
82574;SDS011;72260;65.870;13.210;2023-09-19T08:18:40;0.75;;;0.75;;
82574;SDS011;72260;65.870;13.210;2023-09-19T08:21:06;1.25;;;0.88;;
82574;SDS011;72260;65.870;13.210;2023-09-19T08:26:01;0.95;;;0.80;;
82574;SDS011;72260;65.870;13.210;2023-09-19T08:28:31;1.00;;;0.65;;
82574;SDS011;72260;65.870;13.210;2023-09-19T08:31:00;0.50;;;0.50;;
82574;SDS011;72260;65.870;13.210;2023-09-19T08:33:31;1.88;;;0.65;;
82574;SDS011;72260;65.870;13.210;2023-09-19T08:36:00;0.75;;;0.65;;
82574;SDS011;72260;65.870;13.210;2023-09-19T08:38:26;1.05;;;0.82;;
82574;SDS011;72260;65.870;13.210;2023-09-19T08:41:04;0.77;;;0.73;;
82574;SDS011;72260;65.870;13.210;2023-09-19T08:43:32;0.70;;;0.63;;
82574;SDS011;72260;65.870;13.210;2023-09-19T08:46:11;0.82;;;0.70;;
82574;SDS011;72260;65.870;13.210;2023-09-19T08:48:44;1.15;;;0.80;;
82574;SDS011;72260;65.870;13.210;2023-09-19T08:51:42;0.85;;;0.65;;
82574;SDS011;72260;65.870;13.210;2023-09-19T08:54:28;1.20;;;0.80;;
82574;SDS011;72260;65.870;13.210;2023-09-19T08:57:04;0.80;;;0.80;;
82574;SDS011;72260;65.870;13.210;2023-09-19T08:59:42;1.35;;;0.82;;
82574;SDS011;72260;65.870;13.210;2023-09-19T09:02:12;0.70;;;0.70;;
82574;SDS011;72260;65.870;13.210;2023-09-19T09:04:43;1.00;;;0.80;;
82574;SDS011;72260;65.870;13.210;2023-09-19T09:07:13;1.60;;;0.77;;
82574;SDS011;72260;65.870;13.210;2023-09-19T09:09:43;3.15;;;1.30;;
82574;SDS011;72260;65.870;13.210;2023-09-19T09:12:11;1.35;;;1.20;;
82574;SDS011;72260;65.870;13.210;2023-09-19T09:14:37;2.33;;;1.20;;
82574;SDS011;72260;65.870;13.210;2023-09-19T09:17:03;0.80;;;0.80;;
82574;SDS011;72260;65.870;13.210;2023-09-19T09:19:29;0.80;;;0.80;;
82574;SDS011;72260;65.870;13.210;2023-09-19T09:22:05;0.77;;;0.75;;
82574;SDS011;72260;65.870;13.210;2023-09-19T09:24:34;0.45;;;0.45;;
82574;SDS011;72260;65.870;13.210;2023-09-19T09:27:03;0.77;;;0.60;;
82574;SDS011;72260;65.870;13.210;2023-09-19T09:32:28;0.77;;;0.70;;
82574;SDS011;72260;65.870;13.210;2023-09-19T09:35:00;0.60;;;0.60;;
82574;SDS011;72260;65.870;13.210;2023-09-19T09:37:27;0.75;;;0.75;;
82574;SDS011;72260;65.870;13.210;2023-09-19T09:42:36;0.70;;;0.65;;
82574;SDS011;72260;65.870;13.210;2023-09-19T09:45:14;0.98;;;0.75;;
82574;SDS011;72260;65.870;13.210;2023-09-19T09:50:24;0.90;;;0.60;;
82574;SDS011;72260;65.870;13.210;2023-09-19T09:52:54;1.05;;;0.95;;
82574;SDS011;72260;65.870;13.210;2023-09-19T09:55:36;1.13;;;1.02;;
82574;SDS011;72260;65.870;13.210;2023-09-19T09:58:34;4.88;;;1.17;;
82574;SDS011;72260;65.870;13.210;2023-09-19T10:01:01;1.70;;;1.15;;
82574;SDS011;72260;65.870;13.210;2023-09-19T10:03:39;1.60;;;1.30;;
82574;SDS011;72260;65.870;13.210;2023-09-19T10:06:11;3.60;;;1.58;;
82574;SDS011;72260;65.870;13.210;2023-09-19T10:09:09;3.03;;;1.60;;
82574;SDS011;72260;65.870;13.210;2023-09-19T10:12:03;1.85;;;1.23;;
82574;SDS011;72260;65.870;13.210;2023-09-19T10:14:31;1.38;;;1.00;;
82574;SDS011;72260;65.870;13.210;2023-09-19T10:17:00;2.50;;;1.30;;
82574;SDS011;72260;65.870;13.210;2023-09-19T10:22:05;2.75;;;1.33;;
82574;SDS011;72260;65.870;13.210;2023-09-19T10:24:33;1.10;;;0.90;;
82574;SDS011;72260;65.870;13.210;2023-09-19T10:29:29;1.23;;;0.75;;
82574;SDS011;72260;65.870;13.210;2023-09-19T10:34:25;1.30;;;0.88;;
82574;SDS011;72260;65.870;13.210;2023-09-19T10:36:51;1.05;;;0.90;;
82574;SDS011;72260;65.870;13.210;2023-09-19T10:39:19;2.47;;;1.13;;
82574;SDS011;72260;65.870;13.210;2023-09-19T10:41:47;1.05;;;0.80;;
82574;SDS011;72260;65.870;13.210;2023-09-19T10:44:25;0.57;;;0.57;;
82574;SDS011;72260;65.870;13.210;2023-09-19T10:46:51;0.90;;;0.75;;
82574;SDS011;72260;65.870;13.210;2023-09-19T10:49:19;2.13;;;0.80;;
82574;SDS011;72260;65.870;13.210;2023-09-19T10:51:46;1.23;;;0.82;;
82574;SDS011;72260;65.870;13.210;2023-09-19T10:54:15;0.90;;;0.90;;
82574;SDS011;72260;65.870;13.210;2023-09-19T10:56:46;1.20;;;0.90;;
82574;SDS011;72260;65.870;13.210;2023-09-19T10:59:15;1.20;;;0.98;;
82574;SDS011;72260;65.870;13.210;2023-09-19T11:04:31;2.83;;;1.02;;
82574;SDS011;72260;65.870;13.210;2023-09-19T11:12:11;1.30;;;1.05;;
82574;SDS011;72260;65.870;13.210;2023-09-19T11:14:40;2.28;;;1.00;;
82574;SDS011;72260;65.870;13.210;2023-09-19T11:23:17;0.43;;;0.43;;
82574;SDS011;72260;65.870;13.210;2023-09-19T11:25:43;0.70;;;0.50;;
82574;SDS011;72260;65.870;13.210;2023-09-19T11:30:50;0.57;;;0.47;;
82574;SDS011;72260;65.870;13.210;2023-09-19T11:33:29;0.50;;;0.50;;
82574;SDS011;72260;65.870;13.210;2023-09-19T11:43:53;1.27;;;0.90;;
82574;SDS011;72260;65.870;13.210;2023-09-19T11:49:16;1.23;;;0.98;;
82574;SDS011;72260;65.870;13.210;2023-09-19T11:51:48;3.03;;;1.13;;
82574;SDS011;72260;65.870;13.210;2023-09-19T11:54:16;4.05;;;1.15;;
82574;SDS011;72260;65.870;13.210;2023-09-19T11:56:50;1.33;;;0.95;;
82574;SDS011;72260;65.870;13.210;2023-09-19T11:59:22;0.98;;;0.75;;
82574;SDS011;72260;65.870;13.210;2023-09-19T12:01:55;1.33;;;0.80;;
82574;SDS011;72260;65.870;13.210;2023-09-19T12:04:34;2.17;;;0.80;;
82574;SDS011;72260;65.870;13.210;2023-09-19T12:09:40;0.75;;;0.68;;
82574;SDS011;72260;65.870;13.210;2023-09-19T12:12:09;1.25;;;0.77;;
82574;SDS011;72260;65.870;13.210;2023-09-19T12:14:37;0.52;;;0.43;;
82574;SDS011;72260;65.870;13.210;2023-09-19T12:17:04;0.47;;;0.47;;
82574;SDS011;72260;65.870;13.210;2023-09-19T12:19:30;0.98;;;0.60;;
82574;SDS011;72260;65.870;13.210;2023-09-19T12:21:56;1.98;;;0.82;;
82574;SDS011;72260;65.870;13.210;2023-09-19T12:24:25;0.88;;;0.75;;
82574;SDS011;72260;65.870;13.210;2023-09-19T12:26:54;1.70;;;0.77;;
82574;SDS011;72260;65.870;13.210;2023-09-19T12:29:26;1.20;;;1.10;;
82574;SDS011;72260;65.870;13.210;2023-09-19T12:31:53;2.75;;;1.40;;
82574;SDS011;72260;65.870;13.210;2023-09-19T12:34:31;2.38;;;1.30;;
82574;SDS011;72260;65.870;13.210;2023-09-19T12:39:51;2.08;;;1.60;;
82574;SDS011;72260;65.870;13.210;2023-09-19T12:42:23;2.55;;;1.45;;
82574;SDS011;72260;65.870;13.210;2023-09-19T12:44:53;2.05;;;1.67;;
82574;SDS011;72260;65.870;13.210;2023-09-19T12:47:22;0.85;;;0.63;;
82574;SDS011;72260;65.870;13.210;2023-09-19T12:52:38;1.63;;;1.05;;
82574;SDS011;72260;65.870;13.210;2023-09-19T12:55:05;1.55;;;0.65;;
82574;SDS011;72260;65.870;13.210;2023-09-19T12:57:34;0.77;;;0.77;;
82574;SDS011;72260;65.870;13.210;2023-09-19T13:00:03;0.65;;;0.65;;
82574;SDS011;72260;65.870;13.210;2023-09-19T13:02:36;1.30;;;0.50;;
82574;SDS011;72260;65.870;13.210;2023-09-19T13:05:02;0.65;;;0.63;;
82574;SDS011;72260;65.870;13.210;2023-09-19T13:10:10;1.35;;;0.35;;
82574;SDS011;72260;65.870;13.210;2023-09-19T13:12:36;0.52;;;0.52;;
82574;SDS011;72260;65.870;13.210;2023-09-19T13:15:10;0.43;;;0.40;;
82574;SDS011;72260;65.870;13.210;2023-09-19T13:17:48;0.52;;;0.20;;
82574;SDS011;72260;65.870;13.210;2023-09-19T13:20:21;1.15;;;0.60;;
82574;SDS011;72260;65.870;13.210;2023-09-19T13:22:53;0.20;;;0.20;;
82574;SDS011;72260;65.870;13.210;2023-09-19T13:25:20;0.50;;;0.35;;
82574;SDS011;72260;65.870;13.210;2023-09-19T13:27:50;0.85;;;0.40;;
82574;SDS011;72260;65.870;13.210;2023-09-19T13:30:19;0.50;;;0.50;;
82574;SDS011;72260;65.870;13.210;2023-09-19T13:32:46;0.82;;;0.50;;
82574;SDS011;72260;65.870;13.210;2023-09-19T13:35:15;0.50;;;0.50;;
82574;SDS011;72260;65.870;13.210;2023-09-19T13:37:41;0.40;;;0.30;;
82574;SDS011;72260;65.870;13.210;2023-09-19T13:40:08;0.20;;;0.20;;
82574;SDS011;72260;65.870;13.210;2023-09-19T13:42:35;1.10;;;0.98;;
82574;SDS011;72260;65.870;13.210;2023-09-19T13:45:02;1.63;;;1.00;;
82574;SDS011;72260;65.870;13.210;2023-09-19T13:47:30;2.35;;;1.00;;
82574;SDS011;72260;65.870;13.210;2023-09-19T13:49:56;1.42;;;0.50;;
82574;SDS011;72260;65.870;13.210;2023-09-19T13:52:22;1.02;;;0.93;;
82574;SDS011;72260;65.870;13.210;2023-09-19T13:54:48;1.00;;;0.90;;
82574;SDS011;72260;65.870;13.210;2023-09-19T13:57:18;2.83;;;1.15;;
82574;SDS011;72260;65.870;13.210;2023-09-19T13:59:46;4.32;;;1.38;;
82574;SDS011;72260;65.870;13.210;2023-09-19T14:02:13;1.98;;;0.95;;
82574;SDS011;72260;65.870;13.210;2023-09-19T14:04:39;0.60;;;0.50;;
82574;SDS011;72260;65.870;13.210;2023-09-19T14:07:05;0.68;;;0.57;;
82574;SDS011;72260;65.870;13.210;2023-09-19T14:09:32;1.58;;;0.52;;
82574;SDS011;72260;65.870;13.210;2023-09-19T14:11:59;0.95;;;0.70;;
82574;SDS011;72260;65.870;13.210;2023-09-19T14:14:24;0.60;;;0.50;;
82574;SDS011;72260;65.870;13.210;2023-09-19T14:16:50;1.02;;;0.65;;
82574;SDS011;72260;65.870;13.210;2023-09-19T14:19:17;0.50;;;0.50;;
82574;SDS011;72260;65.870;13.210;2023-09-19T14:21:43;0.55;;;0.55;;
82574;SDS011;72260;65.870;13.210;2023-09-19T14:24:09;1.67;;;1.00;;
82574;SDS011;72260;65.870;13.210;2023-09-19T14:26:38;2.17;;;0.90;;
82574;SDS011;72260;65.870;13.210;2023-09-19T14:31:29;1.50;;;0.57;;
82574;SDS011;72260;65.870;13.210;2023-09-19T14:33:55;0.38;;;0.38;;
82574;SDS011;72260;65.870;13.210;2023-09-19T14:36:21;0.50;;;0.38;;
82574;SDS011;72260;65.870;13.210;2023-09-19T14:38:47;0.30;;;0.30;;
82574;SDS011;72260;65.870;13.210;2023-09-19T14:41:13;0.55;;;0.43;;
82574;SDS011;72260;65.870;13.210;2023-09-19T14:43:38;0.32;;;0.30;;
82574;SDS011;72260;65.870;13.210;2023-09-19T14:46:07;0.65;;;0.60;;
82574;SDS011;72260;65.870;13.210;2023-09-19T14:48:33;0.32;;;0.30;;
82574;SDS011;72260;65.870;13.210;2023-09-19T14:51:05;2.88;;;0.73;;
82574;SDS011;72260;65.870;13.210;2023-09-19T14:53:37;2.20;;;0.85;;
82574;SDS011;72260;65.870;13.210;2023-09-19T14:56:06;2.53;;;1.17;;
82574;SDS011;72260;65.870;13.210;2023-09-19T14:58:33;1.08;;;0.80;;
82574;SDS011;72260;65.870;13.210;2023-09-19T15:01:03;1.05;;;0.52;;
82574;SDS011;72260;65.870;13.210;2023-09-19T15:03:29;1.48;;;0.68;;
82574;SDS011;72260;65.870;13.210;2023-09-19T15:05:59;0.70;;;0.70;;
82574;SDS011;72260;65.870;13.210;2023-09-19T15:08:32;1.10;;;0.80;;
82574;SDS011;72260;65.870;13.210;2023-09-19T15:11:00;0.45;;;0.30;;
82574;SDS011;72260;65.870;13.210;2023-09-19T15:15:58;0.77;;;0.60;;
82574;SDS011;72260;65.870;13.210;2023-09-19T15:18:29;0.60;;;0.52;;
82574;SDS011;72260;65.870;13.210;2023-09-19T15:21:03;0.93;;;0.80;;
82574;SDS011;72260;65.870;13.210;2023-09-19T15:23:30;1.13;;;0.80;;
82574;SDS011;72260;65.870;13.210;2023-09-19T15:25:57;1.23;;;0.68;;
82574;SDS011;72260;65.870;13.210;2023-09-19T15:28:23;1.15;;;0.80;;
82574;SDS011;72260;65.870;13.210;2023-09-19T15:30:49;0.50;;;0.45;;
82574;SDS011;72260;65.870;13.210;2023-09-19T15:33:15;1.13;;;0.65;;
82574;SDS011;72260;65.870;13.210;2023-09-19T15:35:40;0.40;;;0.40;;
82574;SDS011;72260;65.870;13.210;2023-09-19T15:38:07;0.13;;;0.10;;
82574;SDS011;72260;65.870;13.210;2023-09-19T15:40:33;0.45;;;0.30;;
82574;SDS011;72260;65.870;13.210;2023-09-19T15:42:58;0.17;;;0.17;;
82574;SDS011;72260;65.870;13.210;2023-09-19T15:45:25;0.22;;;0.22;;
82574;SDS011;72260;65.870;13.210;2023-09-19T15:47:51;2.83;;;0.43;;
82574;SDS011;72260;65.870;13.210;2023-09-19T15:50:16;0.82;;;0.47;;
82574;SDS011;72260;65.870;13.210;2023-09-19T15:52:42;0.32;;;0.30;;
82574;SDS011;72260;65.870;13.210;2023-09-19T15:55:08;0.10;;;0.10;;
82574;SDS011;72260;65.870;13.210;2023-09-19T15:57:38;1.13;;;0.70;;